Time;durP1;ratioP1;P1;durP2;ratioP2;P2;SDS_P1;SDS_P2;PMS_P1;PMS_P2;Temp;Humidity;BMP_temperature;BMP_pressure;BME280_temperature;BME280_humidity;BME280_pressure;Samples;Min_cycle;Max_cycle;Signal;HPM_P1;HPM_P2
2023/05/27 00:00:30;;;;;;;7.00;6.30;;;23.30;83.50;;;;;;6000861;29;94126;-66
2023/05/27 00:03:32;;;;;;;8.43;6.57;;;23.30;83.50;;;;;;6019809;29;94188;-67
2023/05/27 00:06:36;;;;;;;7.07;6.38;;;23.30;83.50;;;;;;6014187;29;93355;-67
2023/05/27 00:09:38;;;;;;;6.93;6.28;;;23.30;83.50;;;;;;6010526;29;94280;-67
2023/05/27 00:12:40;;;;;;;9.38;6.28;;;23.20;83.50;;;;;;6011367;29;94097;-67
2023/05/27 00:15:43;;;;;;;6.97;6.28;;;23.30;83.70;;;;;;6009532;29;95099;-67
2023/05/27 00:18:45;;;;;;;7.63;6.82;;;23.20;83.80;;;;;;5994072;29;94189;-67
2023/05/27 00:21:48;;;;;;;6.85;6.25;;;23.20;83.70;;;;;;5991305;29;94301;-67
2023/05/27 00:24:50;;;;;;;7.00;6.30;;;23.30;83.70;;;;;;6001620;29;94153;-67
2023/05/27 00:27:52;;;;;;;7.03;6.32;;;23.30;83.80;;;;;;6010632;29;94174;-67
2023/05/27 00:30:54;;;;;;;6.85;6.15;;;23.30;83.80;;;;;;6011498;29;94278;-66
2023/05/27 00:33:56;;;;;;;6.85;6.15;;;23.30;83.70;;;;;;6008770;29;92927;-67
2023/05/27 00:36:59;;;;;;;7.45;6.75;;;23.20;83.60;;;;;;6000051;29;93680;-66
2023/05/27 00:40:02;;;;;;;7.55;6.28;;;23.20;83.70;;;;;;6006686;29;94087;-66
2023/05/27 00:43:04;;;;;;;7.78;6.55;;;23.20;83.50;;;;;;6000382;29;94421;-67
2023/05/27 00:46:07;;;;;;;6.72;6.03;;;23.20;83.00;;;;;;5994511;29;95121;-67
2023/05/27 00:49:09;;;;;;;7.00;6.30;;;23.20;83.00;;;;;;6011136;29;93009;-66
2023/05/27 00:52:13;;;;;;;8.18;6.97;;;23.20;82.90;;;;;;6010164;29;94109;-67
2023/05/27 00:55:15;;;;;;;8.50;6.70;;;23.20;82.50;;;;;;6011466;29;94131;-66
2023/05/27 00:58:18;;;;;;;8.23;6.47;;;23.20;82.40;;;;;;6005514;29;94119;-66
2023/05/27 01:01:20;;;;;;;10.77;7.00;;;23.20;83.00;;;;;;6010406;29;94142;-66
2023/05/27 01:04:22;;;;;;;8.07;6.63;;;23.20;82.90;;;;;;6006789;29;94312;-67
2023/05/27 01:07:33;;;;;;;9.00;6.82;;;23.20;83.00;;;;;;6010021;29;93380;-66
2023/05/27 01:10:41;;;;;;;10.48;7.25;;;23.20;83.30;;;;;;6010459;29;94180;-67
2023/05/27 01:13:47;;;;;;;9.43;7.20;;;23.20;83.50;;;;;;6012881;29;94391;-66
2023/05/27 01:16:52;;;;;;;9.77;6.78;;;23.20;83.70;;;;;;5988880;29;95072;-66
2023/05/27 01:19:55;;;;;;;10.27;7.22;;;23.20;83.90;;;;;;6005775;29;95165;-67
2023/05/27 01:22:59;;;;;;;8.65;6.88;;;23.20;84.10;;;;;;6016616;29;94512;-67
2023/05/27 01:26:01;;;;;;;7.97;6.55;;;23.30;84.20;;;;;;6012766;29;94118;-66
2023/05/27 01:29:04;;;;;;;8.45;6.70;;;23.20;84.00;;;;;;5997726;29;94218;-67
2023/05/27 01:32:11;;;;;;;9.15;7.38;;;23.20;84.20;;;;;;6002333;29;94363;-67
2023/05/27 01:35:18;;;;;;;9.07;7.22;;;23.20;84.30;;;;;;6001592;29;95287;-67
2023/05/27 01:38:24;;;;;;;8.95;6.95;;;23.20;84.40;;;;;;6018278;29;93667;-67
2023/05/27 01:41:27;;;;;;;8.57;6.97;;;23.20;84.30;;;;;;6019081;29;94207;-67
2023/05/27 01:44:31;;;;;;;8.57;7.30;;;23.20;84.10;;;;;;6006457;29;94603;-67
2023/05/27 01:47:36;;;;;;;8.32;7.18;;;23.30;84.40;;;;;;6000402;29;95095;-67
2023/05/27 01:50:38;;;;;;;9.07;6.97;;;23.20;84.70;;;;;;6022600;29;93389;-66
2023/05/27 01:53:41;;;;;;;11.13;7.60;;;23.20;84.70;;;;;;6000424;29;93318;-67
2023/05/27 01:56:43;;;;;;;9.38;7.18;;;23.20;86.10;;;;;;6010481;29;94137;-67
2023/05/27 01:59:45;;;;;;;10.20;7.07;;;23.20;86.40;;;;;;6003271;29;94110;-67
2023/05/27 02:02:47;;;;;;;9.85;7.25;;;23.20;86.50;;;;;;5995214;29;94231;-66
2023/05/27 02:05:49;;;;;;;9.55;7.50;;;23.20;86.30;;;;;;6015510;29;94501;-67
2023/05/27 02:08:52;;;;;;;11.80;8.13;;;23.20;86.10;;;;;;6023206;29;93931;-67
2023/05/27 02:11:54;;;;;;;10.32;7.35;;;23.20;86.10;;;;;;6000343;29;94145;-67
2023/05/27 02:14:56;;;;;;;9.48;7.10;;;23.20;86.00;;;;;;6011921;29;94240;-67
2023/05/27 02:17:58;;;;;;;9.63;7.25;;;23.20;85.90;;;;;;5999962;29;95080;-67
2023/05/27 02:21:05;;;;;;;10.27;7.30;;;23.20;85.70;;;;;;6007353;29;94078;-67
2023/05/27 02:24:08;;;;;;;9.18;7.20;;;23.20;85.70;;;;;;6012145;29;94812;-67
2023/05/27 02:27:10;;;;;;;9.68;6.93;;;23.10;85.80;;;;;;5993891;29;94073;-67
2023/05/27 02:30:14;;;;;;;10.60;7.10;;;23.20;85.90;;;;;;6014563;29;94175;-67
2023/05/27 02:33:16;;;;;;;9.85;7.38;;;23.20;85.80;;;;;;6016522;29;94154;-67
2023/05/27 02:36:20;;;;;;;11.60;7.18;;;23.20;85.60;;;;;;6013513;29;94224;-67
2023/05/27 02:39:24;;;;;;;9.93;7.18;;;23.20;85.50;;;;;;6016178;29;94256;-67
2023/05/27 02:42:26;;;;;;;8.65;6.72;;;23.20;85.60;;;;;;5994554;29;94132;-67
2023/05/27 02:45:28;;;;;;;7.90;6.68;;;23.20;85.40;;;;;;6015901;29;94798;-67
2023/05/27 02:48:30;;;;;;;10.52;7.43;;;23.20;85.30;;;;;;6028037;29;95060;-67
2023/05/27 02:51:32;;;;;;;9.52;6.88;;;23.20;85.10;;;;;;6013653;29;94626;-67
2023/05/27 02:54:35;;;;;;;9.48;7.13;;;23.20;85.20;;;;;;5996595;29;95317;-67
2023/05/27 02:57:37;;;;;;;8.35;7.03;;;23.10;85.10;;;;;;6009377;29;94119;-67
2023/05/27 03:00:39;;;;;;;8.13;6.93;;;23.20;85.10;;;;;;6018904;29;94478;-67
2023/05/27 03:03:41;;;;;;;7.80;6.78;;;23.20;85.10;;;;;;6017036;29;94450;-67
2023/05/27 03:06:43;;;;;;;7.18;6.45;;;23.20;85.10;;;;;;6002156;29;94191;-67
2023/05/27 03:09:47;;;;;;;8.52;6.25;;;23.20;84.80;;;;;;6003557;29;94248;-67
2023/05/27 03:12:49;;;;;;;7.50;6.18;;;23.10;84.70;;;;;;6020285;29;94232;-67
2023/05/27 03:15:51;;;;;;;7.80;6.80;;;23.20;84.90;;;;;;6011730;29;94268;-66
2023/05/27 03:18:53;;;;;;;7.53;6.50;;;23.20;85.00;;;;;;6004939;29;95398;-67
2023/05/27 03:21:55;;;;;;;7.18;6.47;;;23.20;84.70;;;;;;5989347;29;94237;-67
2023/05/27 03:24:58;;;;;;;8.27;6.40;;;23.20;84.60;;;;;;5989356;29;94167;-66
2023/05/27 03:28:00;;;;;;;7.10;6.38;;;23.20;84.60;;;;;;5996300;29;94368;-66
2023/05/27 03:31:03;;;;;;;7.85;6.88;;;23.10;84.50;;;;;;6002435;29;92803;-66
2023/05/27 03:34:05;;;;;;;7.75;6.22;;;23.20;84.60;;;;;;6012838;29;94237;-67
2023/05/27 03:37:07;;;;;;;7.10;6.20;;;23.10;84.50;;;;;;6008908;29;95078;-67
2023/05/27 03:40:11;;;;;;;10.02;6.43;;;23.20;84.70;;;;;;6009620;29;93808;-66
2023/05/27 03:43:13;;;;;;;9.65;6.32;;;23.10;84.40;;;;;;6002885;29;94162;-66
2023/05/27 03:46:15;;;;;;;9.55;6.28;;;23.20;84.40;;;;;;6014987;29;94458;-67
2023/05/27 03:49:17;;;;;;;8.60;6.45;;;23.20;84.50;;;;;;6015028;29;95083;-67
2023/05/27 03:52:19;;;;;;;6.80;6.10;;;23.20;84.50;;;;;;5999801;29;94220;-66
2023/05/27 03:55:23;;;;;;;7.03;6.32;;;23.10;84.30;;;;;;6007733;29;94296;-66
2023/05/27 03:58:25;;;;;;;7.25;6.30;;;23.10;84.20;;;;;;6006212;29;94032;-66
2023/05/27 04:01:28;;;;;;;7.57;6.15;;;23.10;84.10;;;;;;6006957;29;94397;-66
2023/05/27 04:04:30;;;;;;;7.72;6.10;;;23.20;84.00;;;;;;6002714;29;95692;-67
2023/05/27 04:07:32;;;;;;;6.85;6.15;;;23.10;84.00;;;;;;5996888;29;94219;-67
2023/05/27 04:10:35;;;;;;;6.78;5.78;;;23.10;84.00;;;;;;6014552;29;93512;-66
2023/05/27 04:13:38;;;;;;;6.97;5.78;;;23.20;84.00;;;;;;6004296;29;94174;-66
2023/05/27 04:16:41;;;;;;;7.50;5.60;;;23.10;84.00;;;;;;6025624;29;94140;-66
2023/05/27 04:19:43;;;;;;;7.70;6.13;;;23.10;83.80;;;;;;6018145;29;95112;-66
2023/05/27 04:22:45;;;;;;;7.38;6.35;;;23.20;83.80;;;;;;6027023;29;94132;-66
2023/05/27 04:25:49;;;;;;;6.05;5.40;;;23.10;83.80;;;;;;6011602;29;94331;-67
2023/05/27 04:28:51;;;;;;;6.35;5.70;;;23.20;83.70;;;;;;6010807;29;94207;-67
2023/05/27 04:31:53;;;;;;;6.22;5.63;;;23.10;83.70;;;;;;6019541;29;94080;-66
2023/05/27 04:34:57;;;;;;;6.68;5.75;;;23.20;83.70;;;;;;6004420;29;94148;-67
2023/05/27 04:38:00;;;;;;;6.07;5.47;;;23.20;83.60;;;;;;6006038;29;94466;-66
2023/05/27 04:41:04;;;;;;;6.85;5.57;;;23.20;83.50;;;;;;6008120;29;93728;-66
2023/05/27 04:44:06;;;;;;;7.65;6.18;;;23.20;83.50;;;;;;6010661;29;94058;-67
2023/05/27 04:47:08;;;;;;;7.97;6.05;;;23.20;83.50;;;;;;6014147;29;94300;-67
2023/05/27 04:50:11;;;;;;;8.30;6.18;;;23.20;83.60;;;;;;6009442;29;95212;-67
2023/05/27 04:53:13;;;;;;;6.18;5.57;;;23.20;83.60;;;;;;6011710;29;94484;-67
2023/05/27 04:56:17;;;;;;;6.10;5.45;;;23.20;83.50;;;;;;6011969;29;94062;-69
2023/05/27 04:59:21;;;;;;;6.95;5.72;;;23.20;83.40;;;;;;6005459;29;94059;-68
2023/05/27 05:02:25;;;;;;;6.47;5.57;;;23.20;83.30;;;;;;6026823;29;94400;-68
2023/05/27 05:05:27;;;;;;;6.00;5.32;;;23.20;83.20;;;;;;6008194;29;94381;-69
2023/05/27 05:08:29;;;;;;;5.75;5.10;;;23.30;83.20;;;;;;6009965;29;94196;-68
2023/05/27 05:11:33;;;;;;;5.90;5.30;;;23.30;83.20;;;;;;6023092;29;93743;-69
2023/05/27 05:14:35;;;;;;;7.03;5.53;;;23.20;83.20;;;;;;6018775;29;94277;-68
2023/05/27 05:17:37;;;;;;;6.50;5.80;;;23.30;83.10;;;;;;5996433;29;94156;-66
2023/05/27 05:20:39;;;;;;;6.78;5.25;;;23.30;83.10;;;;;;5999800;29;95423;-67
2023/05/27 05:23:42;;;;;;;6.65;5.75;;;23.30;83.30;;;;;;6004150;29;94250;-68
2023/05/27 05:26:46;;;;;;;6.15;5.55;;;23.30;83.20;;;;;;5997180;29;93615;-68
2023/05/27 05:29:47;;;;;;;6.35;5.20;;;23.30;83.20;;;;;;6007845;29;93270;-69
2023/05/27 05:32:50;;;;;;;6.53;5.80;;;23.30;83.00;;;;;;6012645;29;94108;-69
2023/05/27 05:35:52;;;;;;;7.28;5.80;;;23.30;82.80;;;;;;6013440;29;94095;-69
2023/05/27 05:38:54;;;;;;;7.10;5.28;;;23.30;82.50;;;;;;6012666;29;94175;-68
2023/05/27 05:41:58;;;;;;;6.43;5.40;;;23.30;82.30;;;;;;5992463;29;93484;-68
2023/05/27 05:45:00;;;;;;;6.90;5.32;;;23.30;82.00;;;;;;6000608;29;94290;-68
2023/05/27 05:48:02;;;;;;;6.13;5.20;;;23.30;81.80;;;;;;5992693;29;94152;-68
2023/05/27 05:51:04;;;;;;;7.25;5.50;;;23.30;81.80;;;;;;6012311;29;93971;-68
2023/05/27 05:54:06;;;;;;;6.30;5.03;;;23.30;81.70;;;;;;6014455;29;94466;-68
2023/05/27 05:57:09;;;;;;;6.57;5.03;;;23.30;81.60;;;;;;6008125;29;94338;-69
2023/05/27 06:00:13;;;;;;;5.97;5.00;;;23.30;81.40;;;;;;6010535;29;94140;-68
2023/05/27 06:03:15;;;;;;;7.07;4.88;;;23.30;81.00;;;;;;6007900;29;94163;-68
2023/05/27 06:06:17;;;;;;;8.20;5.45;;;23.40;80.80;;;;;;6011683;29;94163;-69
2023/05/27 06:09:19;;;;;;;6.03;5.20;;;23.40;80.80;;;;;;6013826;29;94051;-68
2023/05/27 06:12:22;;;;;;;6.70;5.38;;;23.30;81.00;;;;;;6024792;29;93349;-68
2023/05/27 06:15:25;;;;;;;6.35;5.10;;;23.30;80.80;;;;;;6013185;29;94093;-67
2023/05/27 06:18:27;;;;;;;6.38;5.07;;;23.30;80.80;;;;;;6009840;29;94111;-67
2023/05/27 06:21:31;;;;;;;6.80;4.65;;;23.40;80.60;;;;;;6001186;29;95148;-68
2023/05/27 06:24:33;;;;;;;7.00;5.38;;;23.30;80.40;;;;;;6010226;29;94086;-68
2023/05/27 06:27:37;;;;;;;6.68;4.90;;;23.40;80.30;;;;;;6017543;29;94169;-68
2023/05/27 06:30:39;;;;;;;6.30;5.00;;;23.40;80.30;;;;;;6001249;29;93033;-68
2023/05/27 06:33:42;;;;;;;5.78;4.93;;;23.40;80.60;;;;;;6018193;29;94081;-68
2023/05/27 06:36:48;;;;;;;6.53;4.63;;;23.40;80.70;;;;;;6000248;29;94116;-67
2023/05/27 06:39:50;;;;;;;8.80;5.30;;;23.30;80.60;;;;;;6006984;29;94090;-70
2023/05/27 06:42:54;;;;;;;6.80;4.97;;;23.40;80.60;;;;;;5996521;29;92219;-66
2023/05/27 06:45:56;;;;;;;5.95;4.45;;;23.40;80.80;;;;;;6004920;29;94134;-66
2023/05/27 06:48:58;;;;;;;8.38;5.18;;;23.40;82.20;;;;;;6006471;29;94167;-66
2023/05/27 06:52:00;;;;;;;6.70;4.75;;;23.40;81.00;;;;;;6000434;29;95500;-66
2023/05/27 06:55:02;;;;;;;7.78;5.15;;;23.40;81.10;;;;;;6016627;29;94238;-67
2023/05/27 06:58:06;;;;;;;6.70;4.60;;;23.40;81.40;;;;;;6012270;29;94169;-67
2023/05/27 07:01:08;;;;;;;6.07;4.47;;;23.40;82.00;;;;;;6007125;29;94418;-67
2023/05/27 07:04:10;;;;;;;8.30;4.93;;;23.40;81.90;;;;;;6000317;29;94207;-66
2023/05/27 07:07:12;;;;;;;6.88;4.45;;;23.40;82.00;;;;;;6021379;29;94374;-66
2023/05/27 07:10:14;;;;;;;5.88;4.57;;;23.40;82.10;;;;;;6027164;29;94512;-66
2023/05/27 07:13:17;;;;;;;5.63;4.20;;;23.40;82.80;;;;;;6001490;29;93777;-67
2023/05/27 07:16:20;;;;;;;8.73;5.00;;;23.40;83.20;;;;;;6012943;29;94152;-67
2023/05/27 07:19:22;;;;;;;7.60;5.18;;;23.40;83.10;;;;;;6004178;29;94257;-67
2023/05/27 07:22:25;;;;;;;7.00;4.60;;;23.40;81.30;;;;;;6008731;29;95621;-67
2023/05/27 07:25:27;;;;;;;8.43;4.75;;;23.40;78.50;;;;;;6013819;29;94180;-67
2023/05/27 07:28:30;;;;;;;7.90;4.60;;;23.40;76.90;;;;;;6002059;29;94220;-67
2023/05/27 07:31:32;;;;;;;6.57;4.50;;;23.30;77.40;;;;;;6011600;29;94160;-66
2023/05/27 07:34:34;;;;;;;8.07;4.68;;;23.20;74.20;;;;;;6006731;29;92998;-67
2023/05/27 07:37:36;;;;;;;8.02;4.32;;;23.10;74.00;;;;;;6011999;29;94114;-66
2023/05/27 07:40:38;;;;;;;9.35;4.50;;;23.10;72.40;;;;;;6011813;29;94094;-67
2023/05/27 07:43:42;;;;;;;7.45;4.57;;;23.00;72.50;;;;;;6024745;29;93378;-66
2023/05/27 07:46:44;;;;;;;7.70;4.30;;;23.00;72.70;;;;;;6012602;29;95491;-66
2023/05/27 07:49:46;;;;;;;7.03;4.18;;;22.90;72.60;;;;;;6004079;29;94132;-66
2023/05/27 07:52:48;;;;;;;6.70;3.92;;;22.90;73.20;;;;;;6020412;29;95192;-66
2023/05/27 07:55:50;;;;;;;8.50;3.95;;;22.90;73.50;;;;;;6005097;29;94146;-67
2023/05/27 07:58:53;;;;;;;7.15;3.92;;;22.90;72.70;;;;;;6000209;29;94214;-67
2023/05/27 08:01:55;;;;;;;7.60;4.00;;;22.80;71.10;;;;;;6015542;29;94430;-67
2023/05/27 08:04:57;;;;;;;9.30;4.43;;;22.80;70.80;;;;;;5996811;29;94241;-68
2023/05/27 08:07:59;;;;;;;9.98;4.93;;;22.80;69.40;;;;;;6007937;29;94190;-67
2023/05/27 08:11:01;;;;;;;7.82;4.13;;;22.70;69.30;;;;;;6000732;29;94050;-67
2023/05/27 08:14:05;;;;;;;6.82;4.22;;;22.60;69.30;;;;;;6001502;29;93282;-67
2023/05/27 08:17:06;;;;;;;6.38;3.97;;;22.60;69.10;;;;;;5994741;29;95716;-67
2023/05/27 08:20:09;;;;;;;8.48;4.05;;;22.50;69.10;;;;;;6004635;29;94077;-67
2023/05/27 08:23:11;;;;;;;8.85;4.22;;;22.50;68.80;;;;;;6012974;29;95018;-68
2023/05/27 08:26:13;;;;;;;7.20;3.90;;;22.50;68.60;;;;;;6006875;29;94396;-67
2023/05/27 08:29:16;;;;;;;8.70;4.20;;;22.40;68.40;;;;;;6014797;29;94146;-66
2023/05/27 08:32:18;;;;;;;7.00;4.10;;;22.40;68.80;;;;;;6021062;29;94688;-67
2023/05/27 08:35:20;;;;;;;7.57;3.85;;;22.40;68.70;;;;;;6023350;29;94547;-67
2023/05/27 08:38:22;;;;;;;6.68;4.00;;;22.40;67.80;;;;;;5998891;29;94074;-66
2023/05/27 08:41:26;;;;;;;8.02;3.85;;;22.30;67.90;;;;;;6008470;29;94086;-66
2023/05/27 08:44:29;;;;;;;9.15;3.90;;;22.30;67.40;;;;;;6017428;29;93466;-66
2023/05/27 08:47:31;;;;;;;7.07;3.85;;;22.20;66.40;;;;;;6006522;29;93056;-68
2023/05/27 08:50:33;;;;;;;6.40;3.60;;;22.30;67.60;;;;;;6000712;29;94090;-67
2023/05/27 08:53:36;;;;;;;8.10;3.70;;;22.20;67.40;;;;;;6008146;29;95052;-68
2023/05/27 08:56:40;;;;;;;7.65;3.72;;;22.30;68.20;;;;;;6011353;29;94433;-68
2023/05/27 08:59:44;;;;;;;7.75;4.10;;;22.30;68.40;;;;;;6014236;29;94070;-68
2023/05/27 09:02:46;;;;;;;7.00;3.60;;;22.30;67.70;;;;;;6010898;29;93047;-68
2023/05/27 09:05:48;;;;;;;8.48;3.92;;;22.30;67.10;;;;;;6012908;29;94149;-68
2023/05/27 09:08:50;;;;;;;7.28;4.00;;;22.30;67.60;;;;;;6022779;29;94278;-68
2023/05/27 09:11:52;;;;;;;7.07;3.90;;;22.40;67.20;;;;;;6014150;29;94261;-66
2023/05/27 09:14:55;;;;;;;7.70;3.80;;;22.30;66.20;;;;;;6003031;29;93797;-66
2023/05/27 09:17:57;;;;;;;8.40;3.72;;;22.30;67.40;;;;;;6002912;29;94176;-66
2023/05/27 09:21:00;;;;;;;7.85;4.10;;;22.30;67.40;;;;;;6018643;29;94491;-66
2023/05/27 09:24:02;;;;;;;8.93;4.30;;;22.30;67.60;;;;;;6000703;29;95046;-66
2023/05/27 09:27:05;;;;;;;5.60;3.80;;;22.30;67.60;;;;;;6013889;29;94492;-67
2023/05/27 09:30:10;;;;;;;18.77;9.00;;;22.20;67.70;;;;;;6014758;29;94543;-66
2023/05/27 09:33:12;;;;;;;11.52;5.78;;;22.10;68.40;;;;;;6004678;29;94178;-65
2023/05/27 09:36:14;;;;;;;11.00;5.13;;;22.10;70.70;;;;;;6014568;29;94587;-65
2023/05/27 09:39:17;;;;;;;9.68;4.75;;;22.10;70.30;;;;;;6025800;29;94102;-65
2023/05/27 09:42:20;;;;;;;7.25;4.32;;;22.10;68.90;;;;;;6009451;29;94035;-65
2023/05/27 09:45:24;;;;;;;8.50;4.60;;;22.10;69.20;;;;;;6008496;29;93609;-65
2023/05/27 09:48:28;;;;;;;9.25;4.60;;;22.10;69.40;;;;;;6019979;29;94200;-65
2023/05/27 09:51:33;;;;;;;10.00;4.30;;;22.10;69.20;;;;;;6008618;29;94422;-66
2023/05/27 09:54:36;;;;;;;7.93;4.25;;;22.00;69.80;;;;;;6010243;29;94006;-66
2023/05/27 09:57:38;;;;;;;7.13;4.10;;;22.00;68.90;;;;;;6011376;29;94033;-66
2023/05/27 10:00:42;;;;;;;10.00;4.50;;;22.00;68.20;;;;;;6005398;29;94505;-66
2023/05/27 10:03:45;;;;;;;7.40;4.30;;;22.10;68.10;;;;;;6013525;29;94335;-66
2023/05/27 10:06:48;;;;;;;6.72;3.70;;;22.00;69.00;;;;;;6018294;29;93912;-66
2023/05/27 10:09:50;;;;;;;8.68;4.20;;;22.00;70.10;;;;;;6009600;29;94301;-67
2023/05/27 10:12:54;;;;;;;14.40;9.60;;;22.00;71.00;;;;;;6006887;29;94133;-67
2023/05/27 10:15:57;;;;;;;14.18;7.03;;;22.20;71.10;;;;;;6024235;29;93422;-65
2023/05/27 10:18:59;;;;;;;7.85;4.90;;;22.20;71.30;;;;;;6001119;29;94244;-66
2023/05/27 10:22:09;;;;;;;9.35;4.35;;;22.20;71.50;;;;;;5993820;29;94147;-66
2023/05/27 10:25:14;;;;;;;7.70;4.50;;;22.20;73.10;;;;;;6013410;29;95078;-66
2023/05/27 10:28:25;;;;;;;8.80;4.90;;;22.20;74.20;;;;;;6015528;28;94678;-66
2023/05/27 10:31:30;;;;;;;8.70;4.63;;;22.30;70.30;;;;;;6012907;29;94294;-65
2023/05/27 10:34:36;;;;;;;8.57;4.68;;;22.20;70.00;;;;;;6011959;29;94162;-66
2023/05/27 10:37:38;;;;;;;10.57;5.22;;;22.20;71.00;;;;;;6000245;29;94354;-66
2023/05/27 10:40:40;;;;;;;9.40;4.82;;;22.20;70.80;;;;;;6004229;29;94188;-66
2023/05/27 10:43:42;;;;;;;9.57;4.60;;;22.20;71.30;;;;;;6014011;29;94095;-66
2023/05/27 10:46:46;;;;;;;10.43;4.53;;;22.10;70.10;;;;;;6013031;29;92357;-66
2023/05/27 10:49:48;;;;;;;7.10;4.38;;;22.10;69.10;;;;;;6012899;29;94121;-66
2023/05/27 10:52:52;;;;;;;8.40;4.28;;;22.10;68.70;;;;;;6008577;29;94177;-66
2023/05/27 10:55:56;;;;;;;8.65;4.22;;;22.10;70.00;;;;;;5992785;29;95771;-66
2023/05/27 10:58:58;;;;;;;9.02;4.28;;;22.10;69.60;;;;;;6004885;29;94148;-66
2023/05/27 11:02:01;;;;;;;7.47;4.10;;;22.10;69.90;;;;;;6003862;29;94101;-66
2023/05/27 11:05:10;;;;;;;8.70;4.00;;;22.10;69.40;;;;;;6023852;29;95749;-66
2023/05/27 11:08:13;;;;;;;7.30;4.00;;;22.10;71.00;;;;;;6009741;29;94094;-66
2023/05/27 11:11:16;;;;;;;7.03;4.20;;;22.10;72.30;;;;;;6010100;29;94142;-66
2023/05/27 11:14:19;;;;;;;7.78;4.00;;;22.20;72.50;;;;;;5994441;29;94144;-67
2023/05/27 11:17:23;;;;;;;7.45;3.63;;;22.20;73.00;;;;;;6021663;29;93495;-67
2023/05/27 11:20:34;;;;;;;8.00;3.63;;;22.20;73.90;;;;;;6000846;29;94105;-68
2023/05/27 11:23:40;;;;;;;9.40;4.05;;;22.30;74.40;;;;;;6002654;29;94085;-68
2023/05/27 11:26:45;;;;;;;7.82;3.67;;;22.40;74.70;;;;;;6020490;29;95159;-68
2023/05/27 11:29:51;;;;;;;7.90;3.92;;;22.40;75.00;;;;;;6018061;29;94356;-67
2023/05/27 11:33:03;;;;;;;6.90;4.07;;;22.40;75.40;;;;;;6017496;29;92033;-68
2023/05/27 11:36:06;;;;;;;7.25;4.15;;;22.40;75.50;;;;;;6011472;29;93963;-68
2023/05/27 11:39:12;;;;;;;7.28;3.95;;;22.50;75.60;;;;;;6011337;29;94123;-67
2023/05/27 11:42:14;;;;;;;7.03;3.33;;;22.50;75.70;;;;;;6013490;29;94039;-68
2023/05/27 11:45:17;;;;;;;6.63;3.80;;;22.50;75.80;;;;;;6001876;29;94227;-68
2023/05/27 11:48:22;;;;;;;6.57;3.65;;;22.50;76.10;;;;;;5996580;29;93608;-68
2023/05/27 11:51:29;;;;;;;5.90;3.47;;;22.50;76.40;;;;;;6017479;29;94095;-68
2023/05/27 11:54:32;;;;;;;7.68;3.85;;;22.60;76.70;;;;;;6022784;29;94312;-67
2023/05/27 11:57:34;;;;;;;7.25;3.80;;;22.60;76.70;;;;;;6014638;29;95414;-68
2023/05/27 12:00:36;;;;;;;5.90;3.72;;;22.60;76.80;;;;;;6030802;29;94388;-67
2023/05/27 12:03:41;;;;;;;5.20;3.65;;;22.60;77.10;;;;;;6012011;29;94242;-68
2023/05/27 12:06:45;;;;;;;5.78;3.70;;;22.60;77.10;;;;;;6012086;29;94137;-68
2023/05/27 12:09:48;;;;;;;8.48;4.05;;;22.60;77.20;;;;;;5996259;29;94485;-68
2023/05/27 12:12:50;;;;;;;5.95;3.60;;;22.70;77.40;;;;;;5999353;29;94137;-68
2023/05/27 12:15:53;;;;;;;6.20;3.70;;;22.70;77.40;;;;;;6011206;29;94155;-68
2023/05/27 12:18:56;;;;;;;7.57;3.60;;;22.70;77.40;;;;;;6007159;29;93445;-68
2023/05/27 12:21:58;;;;;;;6.43;3.30;;;22.80;77.60;;;;;;5994728;29;95294;-68
2023/05/27 12:25:00;;;;;;;6.65;4.00;;;22.70;77.70;;;;;;6013515;28;95994;-67
2023/05/27 12:28:02;;;;;;;6.60;3.45;;;22.70;77.80;;;;;;6006818;29;95155;-68
2023/05/27 12:31:04;;;;;;;5.95;3.83;;;22.70;77.90;;;;;;5988423;29;94108;-67
2023/05/27 12:34:08;;;;;;;6.20;3.45;;;22.80;78.10;;;;;;6008577;29;95762;-68
2023/05/27 12:37:10;;;;;;;4.53;3.20;;;22.70;78.10;;;;;;5998943;29;94209;-67
2023/05/27 12:40:14;;;;;;;5.43;3.40;;;22.80;78.30;;;;;;5991843;29;94126;-68
2023/05/27 12:43:16;;;;;;;6.30;3.63;;;22.80;78.40;;;;;;6007452;29;94202;-68
2023/05/27 12:46:18;;;;;;;6.57;3.28;;;22.80;78.40;;;;;;5998802;29;94307;-68
2023/05/27 12:49:21;;;;;;;4.25;3.08;;;22.80;78.40;;;;;;6022417;29;93355;-68
2023/05/27 12:52:23;;;;;;;6.35;3.60;;;22.80;78.50;;;;;;6011248;29;94166;-68
2023/05/27 12:55:26;;;;;;;4.88;3.45;;;22.90;78.70;;;;;;6005307;29;93045;-68
2023/05/27 12:58:28;;;;;;;5.50;3.25;;;22.80;78.60;;;;;;6008692;29;94966;-68
2023/05/27 13:01:30;;;;;;;4.85;3.67;;;22.80;78.60;;;;;;6004631;29;94557;-67
2023/05/27 13:04:33;;;;;;;5.43;3.47;;;22.80;78.70;;;;;;6010264;29;94065;-67
2023/05/27 13:07:36;;;;;;;5.07;3.10;;;22.80;78.70;;;;;;6006046;29;94131;-67
2023/05/27 13:10:38;;;;;;;5.38;3.13;;;22.80;78.80;;;;;;6011203;29;94250;-68
2023/05/27 13:13:40;;;;;;;3.72;2.95;;;22.80;78.90;;;;;;6010508;29;94213;-67
2023/05/27 13:16:43;;;;;;;4.32;3.13;;;22.90;79.10;;;;;;6009368;29;94127;-67
2023/05/27 13:19:46;;;;;;;4.82;3.10;;;22.90;79.10;;;;;;6011484;29;93418;-68
2023/05/27 13:22:49;;;;;;;4.30;3.08;;;22.90;79.20;;;;;;6000406;29;93007;-67
2023/05/27 13:25:52;;;;;;;5.32;3.60;;;22.90;79.20;;;;;;6008582;29;94219;-67
2023/05/27 13:28:54;;;;;;;5.28;3.40;;;22.90;79.30;;;;;;6003020;29;95036;-68
2023/05/27 13:31:56;;;;;;;4.68;3.30;;;22.90;79.40;;;;;;6021236;29;94159;-67
2023/05/27 13:35:00;;;;;;;4.57;3.28;;;22.90;79.30;;;;;;6004519;29;94164;-68
2023/05/27 13:38:03;;;;;;;4.70;3.00;;;22.90;79.30;;;;;;5990707;29;94154;-67
2023/05/27 13:41:05;;;;;;;3.92;3.10;;;22.90;79.40;;;;;;5988675;29;94151;-68
2023/05/27 13:44:07;;;;;;;5.07;3.42;;;22.90;79.50;;;;;;5993963;29;94134;-68
2023/05/27 13:47:09;;;;;;;3.72;3.00;;;22.90;79.50;;;;;;5993262;29;94142;-67
2023/05/27 13:50:13;;;;;;;4.72;3.20;;;22.90;79.60;;;;;;5993134;29;94050;-67
2023/05/27 13:53:15;;;;;;;5.07;3.13;;;22.90;79.70;;;;;;6001227;29;93915;-67
2023/05/27 13:56:17;;;;;;;3.70;2.65;;;23.00;79.70;;;;;;6017236;29;93023;-68
2023/05/27 13:59:20;;;;;;;4.38;2.90;;;22.90;79.60;;;;;;6016894;29;95078;-68
2023/05/27 14:02:22;;;;;;;3.90;3.10;;;22.90;79.70;;;;;;6028305;29;94108;-68
2023/05/27 14:05:25;;;;;;;4.55;3.00;;;22.90;79.70;;;;;;6014677;29;93762;-68
2023/05/27 14:08:27;;;;;;;4.00;2.97;;;22.90;79.80;;;;;;6005070;29;94508;-68
2023/05/27 14:11:30;;;;;;;3.67;2.92;;;22.90;79.80;;;;;;6009043;29;93084;-68
2023/05/27 14:14:31;;;;;;;4.00;3.08;;;23.00;79.90;;;;;;6007559;29;94112;-68
2023/05/27 14:17:33;;;;;;;5.47;3.42;;;23.00;80.00;;;;;;6025723;29;94206;-68
2023/05/27 14:20:37;;;;;;;4.88;3.10;;;23.00;80.00;;;;;;6014829;29;93689;-68
2023/05/27 14:23:39;;;;;;;5.55;3.22;;;23.00;80.00;;;;;;6025559;29;94308;-68
2023/05/27 14:26:43;;;;;;;4.82;2.92;;;23.00;80.10;;;;;;6022078;29;95893;-68
2023/05/27 14:29:45;;;;;;;4.68;2.90;;;23.00;80.10;;;;;;6006879;29;95229;-68
2023/05/27 14:32:47;;;;;;;4.60;2.92;;;23.00;80.10;;;;;;6005129;29;94156;-68
2023/05/27 14:35:50;;;;;;;4.03;3.22;;;23.00;80.20;;;;;;6014429;29;94484;-68
2023/05/27 14:38:52;;;;;;;3.65;2.85;;;23.00;80.30;;;;;;5991643;29;94124;-68
2023/05/27 14:41:55;;;;;;;3.03;2.72;;;23.00;80.20;;;;;;5990207;29;94081;-68
2023/05/27 14:44:57;;;;;;;4.47;3.10;;;22.90;80.20;;;;;;6016518;29;94328;-68
2023/05/27 14:47:59;;;;;;;3.63;3.13;;;23.00;80.30;;;;;;6017946;29;94053;-68
2023/05/27 14:51:02;;;;;;;4.45;3.10;;;23.00;80.40;;;;;;6009630;29;93407;-68
2023/05/27 14:54:04;;;;;;;4.35;3.03;;;23.00;80.30;;;;;;6004870;29;94456;-70
2023/05/27 14:57:06;;;;;;;5.05;2.90;;;23.00;80.40;;;;;;6011191;29;93963;-67
2023/05/27 15:00:09;;;;;;;6.72;3.13;;;23.00;80.80;;;;;;6004273;29;95118;-68
2023/05/27 15:03:11;;;;;;;7.43;3.50;;;23.00;80.80;;;;;;6009037;29;94126;-68
2023/05/27 15:06:14;;;;;;;4.22;2.85;;;23.00;80.80;;;;;;6010785;29;94157;-68
2023/05/27 15:09:17;;;;;;;5.25;2.90;;;23.00;81.50;;;;;;5998152;29;94057;-68
2023/05/27 15:12:19;;;;;;;4.32;2.90;;;23.00;80.60;;;;;;5999466;29;94255;-67
2023/05/27 15:15:21;;;;;;;4.00;3.15;;;23.00;80.70;;;;;;6005109;29;94130;-68
2023/05/27 15:18:23;;;;;;;4.63;3.00;;;23.00;80.60;;;;;;6007537;29;93895;-67
2023/05/27 15:21:27;;;;;;;3.97;2.80;;;23.00;80.60;;;;;;6001269;29;93399;-67
2023/05/27 15:24:29;;;;;;;4.45;2.67;;;23.10;80.80;;;;;;6009269;29;94061;-66
2023/05/27 15:27:31;;;;;;;3.47;2.92;;;23.00;80.70;;;;;;6010231;29;94641;-68
2023/05/27 15:30:32;;;;;;;4.25;3.00;;;23.00;80.80;;;;;;6010777;29;95054;-68
2023/05/27 15:33:35;;;;;;;5.10;2.88;;;23.00;80.90;;;;;;6004259;29;94100;-67
2023/05/27 15:36:38;;;;;;;3.95;2.63;;;23.00;81.20;;;;;;6018857;29;94251;-67
2023/05/27 15:39:49;;;;;;;4.07;3.00;;;23.00;81.10;;;;;;6009747;29;94664;-66
2023/05/27 15:42:51;;;;;;;3.53;2.70;;;23.00;81.30;;;;;;6003892;29;94332;-67
2023/05/27 15:46:18;;;;;;;3.67;2.90;;;23.00;81.30;;;;;;6019462;29;94140;-67
2023/05/27 15:49:20;;;;;;;3.13;2.60;;;23.00;81.30;;;;;;6002038;29;94172;-67